Latest Coastal Weather Observations for Cape Naturaliste

IDW60701

Issued at 4:33 am WST Saturday 27 May 2017 (issued every 10 minutes, with the page automatically refreshed every 10 minutes)

About coastal observations | Map of coastal stations | Coastal observations for WA | Marine services | Other Formats
Station Details ID: 009519 Name: CAPE NATURALISTE Lat: -33.54 Lon: 115.02 Height: 109.0 m
Data from the previous 72 hours. | See also: Recent months at Cape Naturaliste
Date/Time
WST
Temp
°C
Wind Pressure Rain since
9am
mm
Weather Cloud Vis
km
Sea
Height
m
Swell
Dir  Spd
kts
Gust
kts
hPa Trend Height
m
Period
s
Dir
27/04:30am 10.0 SSE 11 14 1024.6 - 0.0 - - - - - - -
27/04:00am 10.7 SSE 10 13 1024.6 - 0.0 - - - - - - -
27/03:30am 10.5 SSE 10 12 1024.5 - 0.0 - - - - - - -
27/03:00am 11.1 SSE 11 15 1024.6 - 0.0 - - - - - - -
27/02:30am 11.3 SSE 11 14 1024.6 - 0.0 - - - - - - -
27/02:00am 11.2 SSE 11 15 1024.5 - 0.0 - - - - - - -
27/01:30am 11.0 SSE 13 17 1024.5 - 0.0 - - - - - - -
27/01:00am 10.6 SSE 13 16 1024.5 - 0.0 - - - - - - -
27/12:30am 10.4 SSE 12 15 1024.5 - 0.0 - - - - - - -
27/12:00am 10.7 SSE 11 14 1024.4 - 0.0 - - - - - - -
 
Date/Time
WST
Temp
°C
Wind Pressure Rain since
9am
mm
Weather Cloud Vis
km
Sea
Height
m
Swell
Dir  Spd
kts
Gust
kts
hPa Trend Height
m
Period
s
Dir
26/11:30pm 11.0 S 12 16 1024.3 - 0.0 - - - - - - -
26/11:00pm 11.2 S 14 19 1024.3 - 0.0 - - - - - - -
26/10:30pm 11.1 SSE 14 18 1024.2 - 0.0 - - - - - - -
26/10:00pm 10.8 SSE 12 16 1024.1 - 0.0 - - - - - - -
26/09:30pm 11.3 S 14 18 1024.0 - 0.0 - - - - - - -
26/09:00pm 11.4 SSE 13 18 1023.8 - 0.0 - - - - - - -
26/08:30pm 11.3 SSE 13 17 1023.6 - 0.0 - - - - - - -
26/08:00pm 11.5 SSE 12 16 1023.2 - 0.0 - - - - - - -
26/07:30pm 12.1 SSE 14 21 1022.9 - 0.0 - - - - - - -
26/07:00pm 12.3 S 13 18 1022.6 - 0.0 - - - - - - -
26/06:30pm 12.1 SSE 13 17 1022.0 - 0.0 - - - - - - -
26/06:00pm 12.3 SSE 13 17 1021.7 - 0.0 - - - - - - -
26/05:30pm 12.7 S 12 16 1021.3 - 0.0 - - - - - - -
26/05:00pm 12.9 S 14 18 1021.2 - 0.0 - - - - - - -
26/04:30pm 13.6 S 11 15 1021.2 - 0.0 - - - - - - -
26/04:00pm 14.5 S 15 20 1021.1 - 0.0 - - - - - - -
26/03:30pm 15.5 SSW 13 20 1020.8 - 0.0 - - - - - - -
26/03:00pm 16.3 S 13 19 1020.7 - 0.0 - - - - - - -
26/02:30pm 15.5 SSW 15 23 1020.5 - 0.0 - - - - - - -
26/02:00pm 16.5 SSW 15 19 1020.6 - 0.0 - - - - - - -
26/01:30pm 17.3 SSW 15 20 1020.6 - 0.0 - - - - - - -
26/01:00pm 16.6 SSW 15 21 1020.5 - 0.0 - - - - - - -
26/12:30pm 17.4 SSW 15 21 1020.7 - 0.0 - - - - - - -
26/12:00pm 16.3 SSW 13 21 1020.9 - 0.0 - - - - - - -
26/11:30am 16.5 S 12 18 1021.3 - 0.0 - - - - - - -
26/11:00am 16.4 SSW 13 18 1021.5 - 0.0 - - - - - - -
26/10:30am 16.8 SSW 13 20 1021.5 - 0.0 - - - - - - -
26/10:00am 15.7 SSW 13 18 1021.5 - 0.0 - - - - - - -
26/09:30am 14.3 S 13 19 1021.2 - 0.0 - - - - - - -
26/09:00am 15.1 SSW 13 17 1020.9 - 2.2 - - - - - - -
26/08:30am 14.9 SSW 15 20 1020.5 - 2.2 - - - - - - -
26/08:00am 15.2 SSW 11 16 1020.1 - 2.2 - - - - - - -
26/07:30am 14.2 SSW 11 16 1019.8 - 2.2 - - - - - - -
26/07:00am 14.0 SSW 14 19 1019.5 - 2.2 - - - - - - -
26/06:30am 14.4 SSW 15 20 1019.2 - 2.2 - - - - - - -
26/06:00am 14.3 SSW 14 22 1018.9 - 2.2 - - - - - - -
26/05:30am 14.8 SW 18 26 1018.7 - 2.2 - - - - - - -
26/05:00am 15.3 SW 18 25 1018.4 - 2.2 - - - - - - -
26/04:30am 15.0 SW 16 22 1018.3 - 2.2 - - - - - - -
26/04:00am 14.8 SW 18 26 1018.2 - 2.2 - - - - - - -
26/03:40am 15.2 SW 16 26 1017.9 - 2.2 - - - - - - -
26/03:30am 14.8 SW 16 24 1018.0 - 2.2 - - - - - - -
26/03:26am 14.8 SW 17 27 1018.0 - 2.2 - - - - - - -
26/03:00am 15.1 SW 20 29 1017.7 - 2.2 - - - - - - -
26/02:49am 15.3 SW 19 29 1017.7 - 2.2 - - - - - - -
26/02:30am 15.7 SW 20 27 1017.5 - 2.2 - - - - - - -
26/02:00am 15.7 SW 18 24 1017.2 - 2.2 - - - - - - -
26/01:34am 15.5 SW 21 31 1017.1 - 2.2 - - - - - - -
26/01:30am 15.5 SW 22 30 1017.1 - 2.2 - - - - - - -
26/01:25am 15.5 SW 20 30 1017.1 - 2.2 - - - - - - -
26/01:00am 15.6 SW 18 24 1017.2 - 2.2 - - - - - - -
26/12:30am 15.5 SW 17 24 1017.1 - 2.2 - - - - - - -
26/12:00am 15.7 SW 19 28 1017.0 - 2.2 Recent precip. - - - - - -
 
Date/Time
WST
Temp
°C
Wind Pressure Rain since
9am
mm
Weather Cloud Vis
km
Sea
Height
m
Swell
Dir  Spd
kts
Gust
kts
hPa Trend Height
m
Period
s
Dir
25/11:33pm 15.8 WSW 19 30 1017.1 - 2.2 - - - - - - -
25/11:31pm 16.0 W 19 30 1016.9 - 2.2 - - - - - - -
25/11:30pm 16.3 W 19 30 1016.9 - 2.0 - - - - - - -
25/11:00pm 16.0 WSW 17 28 1017.2 - 1.2 - - - - - - -
25/10:33pm 16.2 W 18 30 1017.2 - 1.2 - - - - - - -
25/10:30pm 16.4 WNW 17 22 1017.3 - 1.2 - - - - - - -
25/10:00pm 16.0 W 19 25 1017.5 - 1.2 - - - - - - -
25/09:30pm 17.2 WNW 18 23 1017.5 - 0.2 - - - - - - -
25/09:00pm 15.9 W 14 18 1017.7 - 0.2 - - - - - - -
25/08:39pm 17.8 W 17 27 1017.6 - 0.2 - - - - - - -
25/08:30pm 17.3 W 15 20 1017.6 - 0.2 - - - - - - -
25/08:00pm 17.0 WNW 18 23 1017.8 - 0.2 - - - - - - -
25/07:30pm 16.2 WNW 15 21 1018.0 - 0.2 - - - - - - -
25/07:00pm 16.6 WNW 14 22 1017.9 - 0.2 - - - - - - -
25/06:30pm 16.7 WNW 18 26 1018.0 - 0.2 - - - - - - -
25/06:00pm 17.3 WNW 14 18 1017.7 - 0.2 - - - - - - -
25/05:30pm 17.2 WNW 14 18 1017.8 - 0.2 - - - - - - -
25/05:00pm 17.0 WNW 14 18 1017.7 - 0.2 - - - - - - -
25/04:30pm 18.1 WNW 15 20 1017.8 - 0.2 - - - - - - -
25/04:00pm 17.8 WNW 17 22 1017.8 - 0.2 - - - - - - -
25/03:30pm 18.6 WNW 16 21 1017.8 - 0.2 - - - - - - -
25/03:00pm 19.7 NW 17 25 1018.0 - 0.2 - - - - - - -
25/02:30pm 19.1 WNW 17 23 1018.1 - 0.2 - - - - - - -
25/02:00pm 19.8 WNW 17 23 1018.3 - 0.2 - - - - - - -
25/01:30pm 19.7 WNW 15 20 1018.3 - 0.2 - - - - - - -
25/01:00pm 20.1 NW 15 21 1018.5 - 0.2 - - - - - - -
25/12:30pm 20.6 NW 15 21 1018.8 - 0.2 - - - - - - -
25/12:00pm 20.7 WNW 14 19 1019.3 - 0.0 - - - - - - -
25/11:30am 19.7 WNW 13 18 1019.8 - 0.0 - - - - - - -
25/11:00am 19.0 NW 11 16 1020.0 - 0.0 - - - - - - -
25/10:30am 19.8 NW 13 18 1020.2 - 0.0 - - - - - - -
25/10:00am 19.3 NW 13 17 1020.4 - 0.0 - - - - - - -
25/09:30am 17.5 NW 13 17 1020.5 - 0.0 - - - - - - -
25/09:00am 17.1 NW 11 15 1020.3 - 1.6 - - - - - - -
25/08:30am 16.8 NW 11 14 1020.1 - 1.6 - - - - - - -
25/08:00am 16.1 NNW 8 11 1020.0 - 1.6 - - - - - - -
25/07:30am 15.6 NNW 10 14 1019.8 - 1.6 - - - - - - -
25/07:00am 15.5 NW 9 13 1019.8 - 1.6 - - - - - - -
25/06:30am 15.2 NNW 10 14 1019.8 - 1.6 - - - - - - -
25/06:00am 15.0 NW 10 13 1019.7 - 1.6 - - - - - - -
25/05:30am 14.5 NW 9 11 1019.6 - 1.6 - - - - - - -
25/05:00am 15.0 NNW 4 7 1019.5 - 1.6 - - - - - - -
25/04:30am 14.7 N 4 5 1019.5 - 1.6 - - - - - - -
25/04:00am 14.2 WSW 3 4 1019.7 - 1.4 - - - - - - -
25/03:30am 13.9 WSW 4 5 1019.7 - 1.4 - - - - - - -
25/03:00am 14.6 SW 4 5 1020.1 - 1.4 Rain - - - - - -
25/02:30am 14.5 E 6 8 1020.2 - 0.2 - - - - - - -
25/02:00am 14.7 NE 5 6 1020.2 - 0.2 - - - - - - -
25/01:30am 14.6 NE 6 7 1020.2 - 0.2 - - - - - - -
25/01:00am 14.9 CALM 0 3 1020.4 - 0.2 - - - - - - -
25/12:30am 15.0 W 4 6 1020.7 - 0.2 - - - - - - -
25/12:00am 14.5 SW 3 5 1020.9 - 0.2 Rain - - - - - -
 
Date/Time
WST
Temp
°C
Wind Pressure Rain since
9am
mm
Weather Cloud Vis
km
Sea
Height
m
Swell
Dir  Spd
kts
Gust
kts
hPa Trend Height
m
Period
s
Dir
24/11:30pm 14.9 SW 2 3 1020.9 - 0.0 - - - - - - -
24/11:00pm 14.3 SW 5 6 1021.0 - 0.0 - - - - - - -
24/10:30pm 15.0 CALM 0 0 1021.2 - 0.0 - - - - - - -
24/10:00pm 15.0 SW 4 5 1021.3 - 0.0 - - - - - - -
24/09:30pm 15.0 SW 6 8 1021.1 - 0.0 - - - - - - -
24/09:00pm 15.0 SW 6 7 1021.3 - 0.0 - - - - - - -
24/08:30pm 15.6 SW 7 8 1021.3 - 0.0 - - - - - - -
24/08:00pm 15.8 SW 9 11 1021.2 - 0.0 - - - - - - -
24/07:30pm 15.5 WSW 8 10 1020.8 - 0.0 - - - - - - -
24/07:00pm 15.9 SW 9 13 1020.6 - 0.0 - - - - - - -
24/06:30pm 15.9 WSW 10 14 1020.6 - 0.0 - - - - - - -
24/06:00pm 16.3 WSW 12 15 1020.4 - 0.0 - - - - - - -
24/05:30pm 16.3 WSW 10 14 1020.3 - 0.0 - - - - - - -
24/05:00pm 16.7 WSW 10 14 1020.1 - 0.0 - - - - - - -
24/04:30pm 16.6 NW 9 12 1020.0 - 0.0 - - - - - - -
24/04:00pm 16.7 WNW 13 18 1020.0 - 0.0 - - - - - - -
24/03:30pm 18.1 WNW 16 20 1019.8 - 0.0 - - - - - - -
24/03:00pm 19.0 W 13 17 1019.7 - 0.0 - - - - - - -
24/02:30pm 20.0 W 13 17 1019.6 - 0.0 - - - - - - -
24/02:00pm 20.0 W 13 17 1019.6 - 0.0 - - - - - - -
24/01:30pm 19.4 W 13 18 1019.8 - 0.0 - - - - - - -
24/01:00pm 20.5 W 13 16 1020.1 - 0.0 - - - - - - -
24/12:30pm 18.5 WNW 11 16 1020.4 - 0.0 - - - - - - -
24/12:00pm 20.1 W 12 15 1020.7 - 0.0 - - - - - - -
24/11:30am 19.5 W 9 12 1021.0 - 0.0 - - - - - - -
24/11:00am 17.6 WSW 11 15 1021.2 - 0.0 - - - - - - -
24/10:30am 18.9 WSW 12 15 1021.2 - 0.0 - - - - - - -
24/10:00am 16.3 SW 12 17 1021.2 - 0.0 - - - - - - -
24/09:30am 17.8 SW 11 15 1021.1 - 0.0 - - - - - - -
24/09:00am 17.4 WSW 13 23 1020.9 - 9.8 - - - - - - -
24/08:30am 16.7 W 12 15 1020.9 - 9.8 - - - - - - -
24/08:00am 16.4 W 11 15 1020.8 - 9.8 - - - - - - -
24/07:30am 16.3 W 13 15 1020.5 - 9.8 - - - - - - -
24/07:00am 16.1 W 11 15 1020.2 - 9.8 - - - - - - -
24/06:30am 16.1 WNW 12 15 1020.1 - 9.8 - - - - - - -
24/06:00am 15.9 WNW 11 15 1020.0 - 9.8 - - - - - - -
24/05:30am 15.7 W 11 15 1020.0 - 9.8 - - - - - - -
24/05:00am 15.9 WNW 13 16 1019.7 - 9.8 - - - - - - -

Other Formats:

Comma delimited format used in spreadsheet applications
http://www.bom.gov.au/fwo/IDW60701/IDW60701.94600.axf

JavaScript Object Notation format (JSON) in row-major order
http://www.bom.gov.au/fwo/IDW60701/IDW60701.94600.json